Time;durP1;ratioP1;P1;durP2;ratioP2;P2;SDS_P1;SDS_P2;PMS_P1;PMS_P2;Temp;Humidity;BMP_temperature;BMP_pressure;BME280_temperature;BME280_humidity;BME280_pressure;Samples;Min_cycle;Max_cycle;Signal;HPM_P1;HPM_P2
2023/08/20 00:05:13;;;;;;;8.68;7.78;;;16.50;99.90;;;;;;21138002;28;20470;-63
2023/08/20 00:15:14;;;;;;;8.98;7.10;;;16.40;99.90;;;;;;21138850;28;20181;-64
2023/08/20 00:25:17;;;;;;;10.57;7.00;;;16.20;99.90;;;;;;21103647;27;20203;-63
2023/08/20 00:35:19;;;;;;;11.00;7.43;;;16.10;99.90;;;;;;21081768;28;20051;-64
2023/08/20 00:45:22;;;;;;;7.53;5.45;;;16.00;99.90;;;;;;21125507;28;20031;-51
2023/08/20 00:55:25;;;;;;;5.50;4.78;;;16.30;99.90;;;;;;21116381;28;20035;-52
2023/08/20 01:05:37;;;;;;;10.38;5.22;;;16.60;99.90;;;;;;21106639;28;20124;-63
2023/08/20 01:15:39;;;;;;;6.18;4.63;;;16.70;99.90;;;;;;21120878;28;20032;-63
2023/08/20 01:26:18;;;;;;;7.53;4.60;;;16.20;99.90;;;;;;21131776;28;20473;-51
2023/08/20 01:36:20;;;;;;;8.13;6.20;;;16.00;99.90;;;;;;21131629;28;20031;-64
2023/08/20 01:46:21;;;;;;;8.98;6.20;;;15.90;99.90;;;;;;21141141;28;20023;-63
2023/08/20 01:56:26;;;;;;;9.60;7.25;;;15.80;99.90;;;;;;21140121;28;20035;-63
2023/08/20 02:06:28;;;;;;;8.35;6.78;;;15.90;99.90;;;;;;21224024;27;20051;-63
2023/08/20 02:16:30;;;;;;;7.70;6.72;;;15.90;99.90;;;;;;21208580;27;20024;-63
2023/08/20 02:26:31;;;;;;;9.15;7.47;;;16.00;99.90;;;;;;21218723;27;20453;-63
2023/08/20 02:36:33;;;;;;;8.95;7.18;;;16.10;99.90;;;;;;21193886;27;20023;-63
2023/08/20 02:46:35;;;;;;;10.60;7.55;;;16.00;99.90;;;;;;21226916;27;20031;-63
2023/08/20 02:56:37;;;;;;;13.63;9.43;;;15.90;99.90;;;;;;21204885;27;20178;-63
2023/08/20 03:06:39;;;;;;;11.10;9.05;;;15.90;99.90;;;;;;21208671;27;20146;-63
2023/08/20 03:16:41;;;;;;;14.32;11.27;;;16.00;99.90;;;;;;21202434;27;20027;-52
2023/08/20 03:26:42;;;;;;;15.32;12.75;;;16.00;99.90;;;;;;21185363;27;20038;-49
2023/08/20 03:36:44;;;;;;;20.95;15.98;;;15.90;99.90;;;;;;21184941;27;20035;-63
2023/08/20 03:46:47;;;;;;;21.48;17.88;;;15.90;99.90;;;;;;20979082;28;20085;-62
2023/08/20 03:56:49;;;;;;;22.75;18.60;;;15.90;99.90;;;;;;20982242;28;20197;-62
2023/08/20 04:06:51;;;;;;;26.42;20.00;;;16.00;99.90;;;;;;20944045;28;20040;-51
2023/08/20 04:16:52;;;;;;;32.03;25.05;;;15.90;99.90;;;;;;21052397;28;20101;-51
2023/08/20 04:26:54;;;;;;;33.15;23.90;;;16.10;99.90;;;;;;21100643;28;20100;-50
2023/08/20 04:37:01;;;;;;;28.35;23.30;;;16.20;99.90;;;;;;21081941;28;20044;-53
2023/08/20 04:47:03;;;;;;;30.88;24.45;;;16.60;99.90;;;;;;21080457;28;20043;-63
2023/08/20 04:57:07;;;;;;;36.22;25.77;;;16.70;99.90;;;;;;21103723;27;20031;-63
2023/08/20 05:07:10;;;;;;;40.30;29.25;;;16.50;99.90;;;;;;21163628;27;20035;-63
2023/08/20 05:17:12;;;;;;;45.63;33.97;;;16.60;99.90;;;;;;21189185;27;20094;-63
2023/08/20 05:27:17;;;;;;;45.88;35.13;;;16.70;99.90;;;;;;21191261;28;20467;-63
2023/08/20 05:37:22;;;;;;;40.70;30.85;;;16.80;99.90;;;;;;21197799;28;20401;-56
2023/08/20 05:47:24;;;;;;;48.83;36.05;;;16.90;99.90;;;;;;21201412;28;20095;-49
2023/08/20 05:57:26;;;;;;;47.05;35.92;;;17.10;99.90;;;;;;21178052;28;20043;-63
2023/08/20 06:07:28;;;;;;;44.53;33.28;;;17.30;99.90;;;;;;21182819;28;20026;-63
2023/08/20 06:17:30;;;;;;;37.03;28.38;;;17.70;99.90;;;;;;21188189;28;20100;-50
2023/08/20 06:27:31;;;;;;;29.08;25.35;;;18.50;99.90;;;;;;21198821;27;20562;-53
2023/08/20 06:37:33;;;;;;;16.75;12.73;;;19.90;99.90;;;;;;21211891;27;20121;-62
2023/08/20 06:47:35;;;;;;;12.27;10.40;;;22.70;99.90;;;;;;21201514;27;20035;-65
2023/08/20 06:57:37;;;;;;;10.05;9.15;;;25.70;99.90;;;;;;21172685;27;20469;-65
2023/08/20 07:07:39;;;;;;;13.00;11.70;;;27.40;99.90;;;;;;21200994;27;20031;-65
2023/08/20 07:17:41;;;;;;;11.43;10.20;;;27.20;99.90;;;;;;21193759;27;20468;-54
2023/08/20 07:27:44;;;;;;;12.25;11.00;;;26.50;99.90;;;;;;21182591;27;20038;-66
2023/08/20 07:37:46;;;;;;;13.57;12.27;;;26.80;99.90;;;;;;21180425;27;20046;-62
2023/08/20 07:47:48;;;;;;;11.35;10.23;;;27.40;99.90;;;;;;21187995;27;20036;-65
2023/08/20 07:57:52;;;;;;;13.52;12.25;;;27.80;99.90;;;;;;21179574;27;20047;-65
2023/08/20 08:07:54;;;;;;;14.23;11.50;;;28.40;99.90;;;;;;21174222;27;20031;-65
2023/08/20 08:17:56;;;;;;;11.68;10.68;;;28.20;99.90;;;;;;21191041;27;20040;-65
2023/08/20 08:27:58;;;;;;;12.48;11.27;;;28.90;99.90;;;;;;21202166;27;20035;-65
2023/08/20 08:38:00;;;;;;;12.95;11.75;;;28.90;99.90;;;;;;21186141;27;20493;-65
2023/08/20 08:48:03;;;;;;;13.27;11.85;;;28.60;99.90;;;;;;21200901;27;20039;-54
2023/08/20 08:58:05;;;;;;;15.30;12.52;;;28.80;99.90;;;;;;21178811;27;20051;-64
2023/08/20 09:08:07;;;;;;;12.88;11.65;;;29.00;99.90;;;;;;21184540;27;20430;-64
2023/08/20 09:18:12;;;;;;;14.07;12.77;;;29.30;99.90;;;;;;21201341;28;20054;-64
2023/08/20 09:28:14;;;;;;;14.30;11.55;;;29.30;99.30;;;;;;21163538;28;20028;-64
2023/08/20 09:38:24;;;;;;;13.30;11.93;;;29.20;99.90;;;;;;21175735;28;20043;-63
2023/08/20 09:48:33;;;;;;;13.05;11.63;;;29.40;99.40;;;;;;21180765;28;20500;-63
2023/08/20 09:58:42;;;;;;;13.43;12.13;;;29.50;99.90;;;;;;21173156;27;20418;-63
2023/08/20 10:08:46;;;;;;;13.40;12.10;;;29.70;99.70;;;;;;21200757;27;20449;-62
2023/08/20 10:18:48;;;;;;;13.07;11.88;;;29.70;99.60;;;;;;21199189;27;20039;-62
2023/08/20 10:28:51;;;;;;;13.07;11.82;;;30.00;99.90;;;;;;21195664;27;20393;-62
2023/08/20 10:38:56;;;;;;;13.40;11.93;;;30.10;99.90;;;;;;21201162;27;20040;-50
2023/08/20 10:49:02;;;;;;;13.73;12.32;;;30.10;99.20;;;;;;21210454;27;20039;-62
2023/08/20 10:59:27;;;;;;;14.27;12.73;;;30.10;99.60;;;;;;21171881;27;20396;-63
2023/08/20 11:09:31;;;;;;;14.57;13.00;;;30.30;98.50;;;;;;21190435;27;20349;-62
2023/08/20 11:19:33;;;;;;;13.32;12.13;;;30.00;99.60;;;;;;21176950;27;20037;-62
2023/08/20 11:29:36;;;;;;;13.18;11.90;;;29.80;99.90;;;;;;21174705;27;20053;-64
2023/08/20 11:39:38;;;;;;;13.43;12.15;;;29.90;99.10;;;;;;21211415;27;20030;-62
2023/08/20 11:49:40;;;;;;;14.77;13.25;;;29.80;99.90;;;;;;21192985;27;20488;-62
2023/08/20 11:59:44;;;;;;;13.98;12.57;;;30.30;99.30;;;;;;21179153;27;20156;-62
2023/08/20 12:09:48;;;;;;;14.05;12.65;;;30.20;99.70;;;;;;21187498;27;20084;-62
2023/08/20 12:19:50;;;;;;;15.52;13.90;;;30.30;99.90;;;;;;21191174;27;20027;-64
2023/08/20 12:29:54;;;;;;;14.65;13.02;;;29.70;97.70;;;;;;21190830;27;20521;-63
2023/08/20 12:39:56;;;;;;;13.30;11.93;;;29.80;99.90;;;;;;21194918;27;20058;-62
2023/08/20 12:50:00;;;;;;;13.30;12.10;;;29.80;99.90;;;;;;21168104;27;20040;-62
2023/08/20 13:00:11;;;;;;;13.32;12.02;;;30.20;98.60;;;;;;21170091;27;20120;-62
2023/08/20 13:10:14;;;;;;;13.20;11.90;;;30.10;99.40;;;;;;21199131;27;20069;-62
2023/08/20 13:20:23;;;;;;;12.20;11.18;;;30.90;99.80;;;;;;21207762;28;20116;-62
2023/08/20 13:30:25;;;;;;;14.13;12.55;;;31.40;98.10;;;;;;21174771;28;20065;-62
2023/08/20 13:40:29;;;;;;;12.32;11.10;;;31.60;97.50;;;;;;21201019;27;20116;-60
2023/08/20 13:50:34;;;;;;;14.32;13.02;;;31.20;98.00;;;;;;21213459;27;20431;-61
2023/08/20 14:00:40;;;;;;;15.32;13.82;;;30.90;97.90;;;;;;20230296;27;10000633;-62
2023/08/20 14:10:43;;;;;;;15.95;13.38;;;31.00;98.40;;;;;;21002739;28;20036;-62
2023/08/20 14:20:46;;;;;;;14.82;13.27;;;31.20;96.90;;;;;;21019154;28;20105;-63
2023/08/20 14:30:53;;;;;;;14.25;12.85;;;31.20;99.90;;;;;;21012719;28;20040;-64
2023/08/20 14:41:03;;;;;;;14.00;12.70;;;30.20;98.10;;;;;;21002520;28;20036;-62
2023/08/20 14:51:06;;;;;;;14.23;12.98;;;30.40;97.00;;;;;;21010910;28;20036;-63
2023/08/20 15:01:09;;;;;;;15.18;13.88;;;30.30;97.30;;;;;;21018128;28;20037;-64
2023/08/20 15:11:12;;;;;;;15.23;13.25;;;29.60;97.90;;;;;;21022073;28;20028;-66
2023/08/20 15:21:14;;;;;;;17.08;15.50;;;29.20;99.50;;;;;;20985540;28;20100;-66
2023/08/20 15:31:17;;;;;;;14.30;12.90;;;28.50;98.60;;;;;;21003003;28;20090;-64
2023/08/20 15:41:19;;;;;;;13.85;12.65;;;27.30;99.90;;;;;;21003772;28;20036;-64
2023/08/20 15:51:21;;;;;;;13.73;12.52;;;26.40;99.90;;;;;;20990803;28;20086;-64
2023/08/20 16:01:25;;;;;;;17.33;15.65;;;25.90;99.90;;;;;;21006418;28;20080;-63
2023/08/20 16:11:28;;;;;;;15.20;13.80;;;25.30;99.90;;;;;;21018509;28;20051;-63
2023/08/20 16:21:30;;;;;;;15.65;14.25;;;24.50;99.90;;;;;;20997895;28;20043;-63
2023/08/20 16:31:32;;;;;;;19.02;16.85;;;24.30;99.90;;;;;;21011282;28;20539;-63
2023/08/20 16:41:34;;;;;;;19.25;16.65;;;24.30;99.90;;;;;;21007029;28;20041;-63
2023/08/20 16:51:36;;;;;;;17.95;15.77;;;24.10;99.90;;;;;;21043777;28;20105;-51
2023/08/20 17:01:38;;;;;;;19.73;16.83;;;23.70;99.90;;;;;;21029425;28;20098;-63
2023/08/20 17:11:40;;;;;;;19.65;17.70;;;23.20;99.90;;;;;;20981905;28;20051;-62
2023/08/20 17:21:43;;;;;;;20.90;18.88;;;22.50;99.90;;;;;;21027120;28;20040;-62
2023/08/20 17:31:46;;;;;;;22.15;19.67;;;21.90;99.90;;;;;;20986462;28;20458;-62
2023/08/20 17:41:48;;;;;;;24.80;22.35;;;21.40;99.90;;;;;;21026614;28;20380;-61
2023/08/20 17:51:50;;;;;;;26.33;21.88;;;20.90;99.90;;;;;;20969645;28;20039;-62
2023/08/20 18:01:52;;;;;;;25.05;22.55;;;20.50;99.90;;;;;;21019986;28;20080;-62
2023/08/20 18:11:53;;;;;;;29.63;26.48;;;20.30;99.90;;;;;;21012482;28;20039;-50
2023/08/20 18:21:56;;;;;;;30.00;25.92;;;20.00;99.90;;;;;;20993522;28;20082;-62
2023/08/20 18:31:58;;;;;;;30.38;27.08;;;19.70;99.90;;;;;;21010979;28;20093;-52
2023/08/20 18:42:00;;;;;;;34.17;27.38;;;19.50;99.90;;;;;;21023488;28;20032;-61
2023/08/20 18:52:02;;;;;;;32.05;27.65;;;19.30;99.90;;;;;;21008562;28;20133;-62
2023/08/20 19:02:04;;;;;;;27.38;24.35;;;19.30;99.90;;;;;;21011352;28;20040;-48
2023/08/20 19:12:08;;;;;;;34.15;27.83;;;19.20;99.90;;;;;;21020244;28;20028;-62
2023/08/20 19:22:11;;;;;;;34.58;29.13;;;19.00;99.90;;;;;;21015265;28;20393;-62
2023/08/20 19:32:16;;;;;;;28.67;25.02;;;18.90;99.90;;;;;;21051853;28;20673;-62
2023/08/20 19:42:20;;;;;;;27.27;24.30;;;19.10;99.90;;;;;;20993275;28;20051;-52
2023/08/20 19:52:22;;;;;;;24.38;21.30;;;19.00;99.90;;;;;;21013264;28;20033;-51
2023/08/20 20:02:25;;;;;;;19.55;17.45;;;19.00;99.90;;;;;;21001865;28;20039;-58
2023/08/20 20:12:28;;;;;;;17.73;15.40;;;18.90;99.90;;;;;;21024437;28;20045;-62
2023/08/20 20:22:32;;;;;;;17.48;15.25;;;18.70;99.90;;;;;;21002850;28;20062;-59
2023/08/20 20:32:35;;;;;;;16.08;13.98;;;18.50;99.90;;;;;;20994956;28;20028;-59
2023/08/20 20:42:38;;;;;;;15.90;13.27;;;18.30;99.90;;;;;;21005212;28;20030;-62
2023/08/20 20:52:40;;;;;;;17.38;13.60;;;18.30;99.90;;;;;;21007195;28;20035;-63
2023/08/20 21:02:42;;;;;;;14.70;12.98;;;18.20;99.90;;;;;;20979248;28;20041;-61
2023/08/20 21:12:44;;;;;;;15.13;13.02;;;18.00;99.90;;;;;;20997923;28;20033;-62
2023/08/20 21:22:48;;;;;;;15.48;11.60;;;17.80;99.90;;;;;;20995506;28;20467;-61
2023/08/20 21:32:50;;;;;;;12.85;10.65;;;17.80;99.90;;;;;;21044367;28;20028;-62
2023/08/20 21:42:52;;;;;;;11.30;9.68;;;17.70;99.90;;;;;;21015047;28;20037;-60
2023/08/20 21:52:53;;;;;;;11.00;9.43;;;17.60;99.90;;;;;;20983770;28;20028;-58
2023/08/20 22:02:55;;;;;;;11.90;9.50;;;17.50;99.90;;;;;;20998112;28;20485;-60
2023/08/20 22:12:57;;;;;;;10.95;9.50;;;17.50;99.90;;;;;;21013281;28;20044;-61
2023/08/20 22:22:59;;;;;;;14.38;9.80;;;17.60;99.90;;;;;;21014703;28;20031;-62
2023/08/20 22:33:01;;;;;;;13.40;11.07;;;17.60;99.90;;;;;;20986724;28;20025;-61
2023/08/20 22:43:04;;;;;;;11.75;9.85;;;17.50;99.90;;;;;;21029602;28;20354;-61
2023/08/20 22:53:05;;;;;;;13.60;10.50;;;17.50;99.90;;;;;;21019010;28;20032;-58
2023/08/20 23:03:07;;;;;;;13.68;10.60;;;17.40;99.90;;;;;;21028622;28;20067;-59
2023/08/20 23:13:09;;;;;;;13.38;10.85;;;17.40;99.90;;;;;;21020455;28;20043;-60
2023/08/20 23:23:12;;;;;;;11.82;9.48;;;17.60;99.90;;;;;;21016478;28;20032;-62
2023/08/20 23:33:14;;;;;;;10.02;9.02;;;17.70;99.90;;;;;;21019475;28;20489;-58
2023/08/20 23:43:15;;;;;;;10.05;9.00;;;17.70;99.90;;;;;;21055029;28;20040;-62
2023/08/20 23:53:17;;;;;;;8.95;8.00;;;17.70;99.90;;;;;;21036348;28;20032;-60
